Etusivu
METAR-TAF:

METAR-TAF

Lentoasemat :

Ørland, Norja

Leveyspiiri: 63-42N, Pituuspiiri: 009-36E, korkeus merenpinnasta: 0 m

Tämänhetkinen sää

Tämä raportti tehtiin 15 minuuttia sitten, kello 17.50 UTC
Tuuli 12 kn idästä/kaakosta
Lämpötila -1°C
Kosteus 69%
Ilmanpaine 1024 hPa
Näkyvyys 10 km tai enemmän
ei pilviä alle 1500 m:ssä eikä cumulonimbus-pilviä

METAR: ENOL 191750Z 12012KT CAVOK M01/M06 Q1024 NOSIG

Aika: 19:05 (18:05 UTC)

Sääennuste

Ennuste voimassa 19. päivästä klo 18 UTC - 20. päivään klo 18 UTC
Tuuli 12 kn idästä/kaakosta
Näkyvyys 10 km tai enemmän
ei pilviä alle 1500 m:ssä eikä cumulonimbus-pilviä
Tulossa
20. päivästä klo 09 UTC - 20. päivään klo 11 UTC
Hajonneita pilviä 1400 ft:n korkeudessa
Ajoittain
20. päivästä klo 15 UTC - 20. päivään klo 18 UTC
Tuuli 7 kn eri suunnista
Näkyvyys: 3000 m
800 ft:n korkeudessa
heikkoa lumisadetta

TAF: ENOL 1918/2018 12012KT CAVOK BECMG 2009/2011 BKN014 TEMPO 2015/2018 VRB07KT 3000 -SN VV008

Säähavainnot ja -ennusteet yli 4000 lentoasemalta (METAR- ja TAF-raportit).

Käytössä olevat sääasemat on merkitty karttaan keltaisilla ja punaisilla pisteillä.

Aseta hiiri pisteen päälle nähdäksesi sääaseman nimen.

Klikkaa sitten nähdäksesi säähavainnot ja -ennusteet.

Kartan vaihtaminen: klikkaa mustalla rastilla varustettuja vihreitä pisteitä, niin voit zoomata sisään; viivalla varustettua vihreää pistettä, niin voit zoomata ulos tai vihreitä nuolia, niin pääset viereisille kartoille.


METAR-TAF: